Tiempo atmosférico en la estación meteorológica de Almería Aeropuerto, Almería (21 m.)



Fecha
DESCASC
Temp. máxima en grados centígrados (hora)
DESCASC
Temp. mínima en grados centígrados (hora)
DESCASC
Temp. media en grados centígrados
DESCASC
Racha de viento máxima en m/sg (hora)
DESCASC
Velocidad máxima media en intervalos de 10 minutos(hora)
DESCASC
Precipitaciones diarias en mm
DESCASC
Precipitaciones de 00:00 a 06:00 en mm
DESCASC
Precipitaciones de 06:00 a 12:00 en mm
DESCASC
Precipitaciones de 12:00 a 18:00 en mm
DESCASC
Precipitaciones de 18:00 a 24:00 en mm
DESCASC
17-08-2018 29.2 (15:50) 23.2 (07:40) 26.2 6.11 (13:20) 4.72 (13:20) 0 0 0 0 0
16-08-2018 30.7 (16:30) 24.7 (07:40) 27.7 8.33 (08:50) 6.11 (10:50) 0 0 0 0 0
15-08-2018 33.9 (12:00) 25.2 (03:40) 29.6 10.28 (13:30) 7.5 (13:30) 0 0 0 0 0
14-08-2018 29.4 (18:00) 22.2 (07:00) 25.8 6.67 (14:00) 5 (14:00) 0 0 0 0 0
13-08-2018 29 (14:50) 24.3 (23:59) 26.6 9.72 (14:00) 7.22 (13:50) 0 0 0 0 0
12-08-2018 33.7 (11:40) 24.6 (00:00) 29.2 9.17 (00:10) 6.94 (00:10) 0 0 0 0 0
11-08-2018 36 (15:10) 26.2 (00:00) 31.1 18.61 (17:10) 11.94 (17:40) 0 0 0 0 0
10-08-2018 35.5 (16:40) 22.5 (00:00) 29 15 (12:00) 11.39 (12:40) 0 0 0 0 0
09-08-2018 29.4 (16:20) 24.5 (00:00) 26.9 9.17 (03:40) 6.94 (16:50) 0 0 0 0 0
08-08-2018 36.8 (11:50) 25.4 (00:00) 31.1 9.17 (18:30) 6.67 (18:30) 0 0 0 0 0
07-08-2018 33.5 (17:50) 25.4 (00:00) 29.4 10.83 (23:20) 6.67 (23:50) 0 0 0 0 0
06-08-2018 33.9 (10:20) 25.6 (00:00) 29.8 7.22 (08:40) 5.28 (08:40) 0 0 0 0 0
05-08-2018 30.6 (18:20) 23.6 (00:00) 27.1 5.83 (13:30) 4.17 (13:30) 0 0 0 0 0
04-08-2018 31 (10:20) 24 (06:00) 27.5 7.22 (13:40) 5 (13:50) 0 0 0 0 0
03-08-2018 28.5 (16:00) 22.7 (00:00) 25.6 7.22 (16:30) 5 (16:30) 0 0 0 0 0
02-08-2018 38.3 (15:30) 23 (00:00) 30.6 12.78 (11:20) 9.17 (16:00) 0 0 0 0 0
01-08-2018 39.2 (14:10) 21.8 (07:20) 30.5 13.89 (17:20) 10 (16:40) 0 0 0 0 0
31-07-2018 27.6 (15:40) 21 (00:00) 24.3 7.78 (13:50) 6.39 (14:00) 0 0 0 0 0
30-07-2018 26.8 (16:00) 20.2 (00:00) 23.5 5.83 (14:10) 4.44 (16:40) 0 0 0 0 0
29-07-2018 27.6 (15:10) 20.4 (00:00) 24 13.33 (10:10) 5.56 (15:00) 0 0 0 0 0
28-07-2018 27.6 (16:10) 21.3 (00:00) 24.4 7.78 (15:50) 5.56 (15:50) 0 0 0 0 0
27-07-2018 27.7 (15:50) 21.2 (00:00) 24.5 6.11 (17:50) 4.17 (17:30) 0 0 0 0 0
26-07-2018 27.6 (12:40) 21.4 (00:00) 24.5 5.83 (13:40) 4.17 (14:30) 0 0 0 0 0
25-07-2018 27.3 (17:10) 20.3 (00:00) 23.8 5.83 (13:30) 3.61 (13:50) 0 0 0 0 0
24-07-2018 26.5 (15:00) 21.6 (00:00) 24.1 9.17 (15:30) 6.94 (15:20) 0 0 0 0 0
23-07-2018 32.5 (13:30) 23.2 (00:00) 27.9 10.83 (13:20) 6.67 (12:50) 0 0 0 0 0
22-07-2018 31.7 (11:40) 22.4 (00:00) 27.1 9.72 (10:50) 6.39 (10:50) 0 0 0 0 0
21-07-2018 27 (15:30) 20.2 (00:00) 23.6 6.11 (01:50) 4.17 (01:40) 0 0 0 0 0
20-07-2018 28.8 (19:00) 21.3 (00:00) 25 9.17 (19:00) 5 (19:50) 0 0 0 0 0

Gráficas

Temp. máximas Temp. mínimas Temp. medias Precipitaciones Rachas de viento máximas Velocidades máximas media en intervalos de 10 minutos

Datos horarios

Fecha y hora oficial Temperatura (ºC) Velocidad del viento (km/h) Dirección del viento Racha (km/h) Dirección de racha Precipitación (mm) Presión (hPa) Tendencia (hPa) Humedad (%)
2018-08-18 23:00:00 27.3 33 Nordeste 45 Este 0 1013.9 1 66
2018-08-18 22:00:00 27.5 31 Nordeste 42 Nordeste 0 1013.8 0.8 62
2018-08-18 21:00:00 27.7 33 Nordeste 52 Este 0 1013.3 -0.1 65
2018-08-18 20:00:00 29.4 37 Este 50 Este 0 1012.9 -0.4 57
2018-08-18 19:00:00 30 39 Este 48 Este 0 1013 -0.7 55
2018-08-18 18:00:00 31.8 33 Nordeste 46 Este 0 1013.4 -0.5 45
2018-08-18 17:00:00 32.7 31 Este 45 Este 0 1013.3 -0.7 40
2018-08-18 16:00:00 33.3 31 Este 46 Este 0 1013.7 -0.9 37
2018-08-18 15:00:00 33.2 31 Este 48 Este 0 1013.9 -1.1 40
2018-08-18 14:00:00 33.2 29 Este 46 Este 0 1014 -1.1 43
2018-08-18 13:00:00 32.6 31 Este 46 Este 0 1014.6 -0.6 46
2018-08-18 12:00:00 31.8 26 Este 39 Este 0 1015 -0.2 49
2018-08-18 11:00:00 29.9 26 Nordeste 37 Este 0 1015.1 -0.1 56
2018-08-18 10:00:00 28.6 23 Nordeste 35 Este 0 1015.2 0.3 62
2018-08-18 09:00:00 27.1 20 Nordeste 28 Este 0 1015.2 0.5 69
2018-08-18 08:00:00 25.8 10 Norte 15 Norte 0 1015.2 0.8 69
2018-08-18 07:00:00 25.1 12 Norte 17 Norte 0 1014.9 0.7 71
2018-08-18 06:00:00 25.4 10 Norte 17 Norte 0 1014.7 0.6 73
2018-08-18 05:00:00 25.3 8 Norte 18 Nordeste 0 1014.4 0 72
2018-08-18 04:00:00 25.3 8 Norte 15 Norte 0 1014.2 -0.1 73
2018-08-18 03:00:00 25.6 9 Norte 17 Norte 0 1014.1 0 72
2018-08-18 02:00:00 25.7 12 Nordeste 18 Nordeste 0 1014.4 0.6 74
2018-08-18 01:00:00 25.5 10 Nordeste 13 Nordeste 0 1014.3 0.8 77
2018-08-18 00:00:00 25.8 6 Nordeste 13 Norte 0 1014.1 1.2 74
2018-08-17 23:00:00 25.7 9 Norte 13 Norte 0 1013.8 1.8 83
2018-08-17 22:00:00 25.8 9 Oeste 18 Oeste 0 1013.5 1.3 86
2018-08-17 21:00:00 26.4 12 Sur 15 Sur 0 1012.9 0.3 83
2018-08-17 20:00:00 27.5 9 Sur 13 Sudoeste 0 1012 -0.6 73
2018-08-17 19:00:00 27.9 8 Sur 13 Sur 0 1012.2 -1.1 68
2018-08-17 18:00:00 28 4 Sudoeste 13 Sur 0 1012.6 -0.8 66
2018-08-17 17:00:00 27.1 9 Sur 18 Sur 0 1012.6 -1.1 75
2018-08-17 16:00:00 28.5 14 Sur 21 Sur 0 1013.3 -0.8 70
2018-08-17 15:00:00 28.8 15 Sur 22 Sudoeste 0 1013.4 -0.8 70
2018-08-17 14:00:00 28.3 17 Sudoeste 22 Sudoeste 0 1013.7 -0.3 73
2018-08-17 13:00:00 28 15 Sudoeste 21 Sudoeste 0 1014.1 0.3 76
2018-08-17 12:00:00 27.6 14 Sudoeste 18 Sur 0 1014.2 0.7 78
2018-08-17 11:00:00 27.5 12 Sur 17 Sur 0 1014 1 79
2018-08-17 10:00:00 27.8 11 Sudeste 13 Sudeste 0 1013.8 1.4 68
2018-08-17 09:00:00 26.1 6 Nordeste 8 Nordeste 0 1013.5 1.4 74
2018-08-17 08:00:00 23.4 5 Nordeste 8 Nordeste 0 1013 0.8 85
2018-08-17 07:00:00 23.6 6 Este 9 Este 0 1012.4 -0.1 85
2018-08-17 06:00:00 24.1 5 Norte 11 Nordeste 0 1012.1 -0.6 86
2018-08-17 05:00:00 24.3 4 Nordeste 8 Nordeste 0 1012.2 -0.8 89
2018-08-17 04:00:00 24.2 6 Sudeste 8 Sudeste 0 1012.5 -0.7 86
2018-08-17 03:00:00 24.9 7 Oeste 11 Oeste 0 1012.7 0.1 84
2018-08-17 02:00:00 25.3 6 Sudoeste 15 Sudoeste 0 1013 0.4 85
2018-08-17 01:00:00 25.4 4 Sur 11 Sudoeste 0 1013.2 0.9 86
2018-08-17 00:00:00 25.6 9 Sudoeste 18 Sudoeste 0 1012.6 0.4 86
2018-08-16 23:00:00 25.9 13 Sudoeste 17 Sudoeste 0 1012.6 0.9 83
2018-08-16 22:00:00 26.4 11 Sudoeste 15 Sudoeste 0 1012.3 -0.3 80
2018-08-16 21:00:00 26.9 13 Sudoeste 21 Oeste 0 1012.2 0.1 73
2018-08-16 20:00:00 27.8 14 Sudoeste 18 Sudoeste 0 1011.7 -0.3 72
2018-08-16 19:00:00 28.6 13 Sudoeste 21 Sur 0 1012.6 0 69
2018-08-16 18:00:00 29.5 15 Sur 22 Sudoeste 0 1012.1 -0.5 69
2018-08-16 17:00:00 30.2 18 Sur 24 Sur 0 1012 -0.8 65
2018-08-16 16:00:00 29.8 17 Sur 28 Sur 0 1012.6 -0.9 69
2018-08-16 15:00:00 29.3 17 Sudoeste 26 Sudoeste 0 1012.6 -1.4 71
2018-08-16 14:00:00 29.2 20 Sudoeste 26 Sudoeste 0 1012.8 -0.9 72
2018-08-16 13:00:00 28.9 17 Sudoeste 22 Sudoeste 0 1013.5 0.5 73
2018-08-16 12:00:00 28.3 17 Sudoeste 28 Sudoeste 0 1014 1.7 75
2018-08-16 11:00:00 27.3 21 Sudoeste 30 Sudoeste 0 1013.7 1.2 81
2018-08-16 10:00:00 28.3 5 Noroeste 24 Noroeste 0 1013 0.4 64
2018-08-16 09:00:00 26.7 17 Noroeste 30 Noroeste 0 1012.3 -0.5 69
2018-08-16 08:00:00 25.4 15 Noroeste 21 Noroeste 0 1012.5 -0.1 76
2018-08-16 07:00:00 25 5 Norte 13 Nordeste 0 1012.6 -0.3 79
2018-08-16 06:00:00 25.5 4 Nordeste 15 Norte 0 1012.8 -0.3 78
2018-08-16 05:00:00 25.2 4 Norte 9 Nordeste 0 1012.6 -0.7 82
2018-08-16 04:00:00 25.5 4 Norte 9 Noroeste 0 1012.9 -0.5 83
2018-08-16 03:00:00 25.5 2 Norte 8 Norte 0 1013.1 -0.1 87
2018-08-16 02:00:00 26 2 Sur 8 Este 0 1013.3 0.2 85
2018-08-16 01:00:00 26.5 7 Este 13 Este 0 1013.4 0.5 79
2018-08-16 00:00:00 27 6 Este 13 Nordeste 0 1013.2 0.4 77
2018-08-15 23:00:00 27.9 9 Nordeste 21 Este 0 1013.1 0.8 71
2018-08-15 22:00:00 27.7 11 Este 17 Este 0 1012.9 0.4 73
2018-08-15 21:00:00 26.9 11 Sudoeste 18 Sudoeste 0 1012.8 -0.4 83
2018-08-15 20:00:00 27.9 9 Sudoeste 15 Sudoeste 0 1012.3 -0.8 77
2018-08-15 19:00:00 28.7 10 Sudoeste 26 Sur 0 1012.5 -0.4 74
2018-08-15 18:00:00 29.5 15 Sudoeste 26 Sudoeste 0 1013.2 -0.3 73
2018-08-15 17:00:00 29.5 20 Sur 33 Sur 0 1013.1 -0.7 74
2018-08-15 16:00:00 30.2 16 Sur 32 Sudoeste 0 1012.9 -0.9 72
2018-08-15 15:00:00 29.6 19 Sudoeste 37 Sur 0 1013.5 -0.3 75
2018-08-15 14:00:00 29.3 26 Sur 37 Sur 0 1013.8 -0.1 77
2018-08-15 13:00:00 30.5 24 Sur 32 Sur 0 1013.8 -0.5 71
2018-08-15 12:00:00 33.4 19 Este 32 Este 0 1013.8 -0.7 51
2018-08-15 11:00:00 31.7 20 Este 30 Nordeste 0 1013.9 -0.1 57
2018-08-15 10:00:00 30.3 11 Nordeste 21 Este 0 1014.3 0.6 63
2018-08-15 09:00:00 27.7 13 Noroeste 21 Noroeste 0 1014.5 1.1 72
2018-08-15 08:00:00 26.1 12 Norte 15 Norte 0 1014 0.6 76
2018-08-15 07:00:00 25.7 6 Nordeste 13 Nordeste 0 1013.7 0.1 76
2018-08-15 06:00:00 26 6 Norte 9 Norte 0 1013.4 -0.4 76
2018-08-15 05:00:00 26.1 3 Nordeste 11 Nordeste 0 1013.4 -0.6 75
2018-08-15 04:00:00 25.3 9 Norte 11 Norte 0 1013.6 -0.2 82
2018-08-15 03:00:00 25.6 2 Este 11 Nordeste 0 1013.8 0.2 81
2018-08-15 02:00:00 26.6 11 Nordeste 17 Este 0 1014 0.7 77
2018-08-15 01:00:00 26.3 9 Este 13 Este 0 1013.8 0.9 75
2018-08-15 00:00:00 25.8 0 Calma 5 Sudeste 0 1013.6 1.4 89
2018-08-14 23:00:00 26.2 2 Oeste 8 Sudoeste 0 1013.3 1.3 87
2018-08-14 22:00:00 26.3 4 Sudoeste 8 Sudoeste 0 1012.9 0.7 86
2018-08-14 21:00:00 26.9 4 Sur 9 Sudoeste 0 1012.2 -0.1 83
2018-08-14 20:00:00 27.8 7 Sudoeste 13 Sur 0 1012 -0.4 80
2018-08-14 19:00:00 28.4 10 Sudoeste 18 Sudoeste 0 1012.2 -0.4 78
2018-08-14 18:00:00 29.1 14 Sudoeste 22 Sudoeste 0 1012.3 -0.6 75
2018-08-14 17:00:00 29.1 14 Sudoeste 22 Sudoeste 0 1012.4 -0.7 76
2018-08-14 16:00:00 28.9 16 Sudoeste 22 Sudoeste 0 1012.6 -0.6 75
2018-08-14 15:00:00 28.7 13 Sur 24 Sudoeste 0 1012.9 -0.3 76
2018-08-14 14:00:00 28.4 18 Sudoeste 24 Sudoeste 0 1013.1 0.3 77
2018-08-14 13:00:00 28 12 Sur 18 Sur 0 1013.2 1 77
2018-08-14 12:00:00 27.5 10 Sur 15 Sur 0 1013.2 1.6 78
2018-08-14 11:00:00 26.4 12 Sur 17 Sudoeste 0 1012.8 1.7 83
2018-08-14 10:00:00 27.1 9 Sur 13 Sur 0 1012.2 1.9 71
2018-08-14 09:00:00 25.4 4 Nordeste 11 Norte 0 1011.6 1.8 78
2018-08-14 08:00:00 22.6 6 Noroeste 8 Norte 0 1011.1 1.3 91
2018-08-14 07:00:00 22.3 4 Norte 5 Norte 0 1010.3 0.4 91
2018-08-14 06:00:00 22.6 4 Nordeste 13 Nordeste 0 1009.8 -0.4 92
2018-08-14 05:00:00 22.7 10 Nordeste -- -- 0 1009.8 -0.5 91
2018-08-14 04:00:00 23.5 4 Nordeste 9 Norte 0 1009.9 -0.3 91
2018-08-14 03:00:00 23.7 4 Norte 8 Norte 0 1010.2 0.2 92
2018-08-14 02:00:00 23.8 4 Oeste 11 Sudoeste 0 1010.3 0.6 92
2018-08-14 01:00:00 24.1 10 Sudoeste 21 Sudoeste 0 1010.2 0.9 92
2018-08-14 00:00:00 24.4 15 Sudoeste 21 Sudoeste 0 1010 0.9 92
2018-08-13 23:00:00 24.5 10 Sudoeste 15 Sudoeste 0 1009.7 0.6 90
2018-08-13 22:00:00 24.6 8 Sudoeste 13 Sudoeste 0 1009.3 0.2 87
2018-08-13 21:00:00 25 12 Sudoeste 18 Sur 0 1009.1 -0.5 85
2018-08-13 20:00:00 26.3 13 Sur 24 Sudoeste 0 1009.1 -0.7 78
2018-08-13 19:00:00 26.8 19 Sur 28 Sudoeste 0 1009.1 -1.2 79
2018-08-13 18:00:00 27.5 22 Sur 33 Sudoeste 0 1009.6 -1.4 77
2018-08-13 17:00:00 27.6 26 Sudoeste 33 Sudoeste 0 1009.8 -1.8 75
2018-08-13 16:00:00 28.3 24 Sur 35 Sudoeste 0 1010.3 -1.9 71
2018-08-13 15:00:00 28.6 23 Sur 32 Sudoeste 0 1011 -- 70
2018-08-13 14:00:00 27.8 25 Sudoeste 35 Sudoeste 0 1011.6 -0.6 74
2018-08-13 13:00:00 28 23 Sudoeste 30 Sudoeste 0 1012.2 0 73
2018-08-13 12:00:00 27.7 24 Sudoeste 28 Sudoeste 0 -- -- 75
2018-08-13 11:00:00 27.4 14 Sudoeste 18 Sudoeste 0 1012.2 0.8 77
2018-08-13 10:00:00 26.8 10 Sudoeste 13 Sudoeste 0 1012.2 1.2 79
2018-08-13 09:00:00 26.2 0 Calma 8 Noroeste 0 1012 1 80
2018-08-13 08:00:00 24.6 2 Este 8 Norte 0 1011.4 -0.2 88
2018-08-13 07:00:00 24.9 5 Oeste 11 Oeste 0 1011 -0.3 90
2018-08-13 06:00:00 24.7 7 Sudoeste 11 Sudoeste 0 1011 -0.2 93
2018-08-13 05:00:00 25.1 5 Sur 8 Sur 0 1011.6 0.4 92
2018-08-13 04:00:00 24.8 7 Sudeste 13 Sudoeste 0 1011.3 -0.2 94
2018-08-13 03:00:00 24.9 9 Sudoeste 17 Sudoeste 0 1011.2 -0.9 93
2018-08-13 02:00:00 25.1 12 Sudoeste 15 Sudoeste 0 1011.2 -0.9 92
2018-08-13 01:00:00 25.3 11 Sudoeste 18 Sudoeste 0 1011.5 -0.2 91
2018-08-13 00:00:00 25.6 8 Sudoeste 13 Sudoeste 0 1012.1 1.1 88
2018-08-12 23:00:00 25.7 6 Sudoeste 11 Sur 0 1012.1 1.5 89
2018-08-12 22:00:00 26.1 4 Sudoeste 11 Sudoeste 0 1011.7 0.8 89
2018-08-12 21:00:00 26.6 6 Sudoeste 21 Sudoeste 0 1011 -0.2 88
2018-08-12 20:00:00 27.6 12 Sudoeste 18 Sudoeste 0 1010.6 -1.2 85
2018-08-12 19:00:00 28.4 14 Sudoeste 21 Sudoeste 0 1010.9 -1.7 81
2018-08-12 18:00:00 29.1 17 Sudoeste 30 Sudoeste 0 1011.2 -2 77
2018-08-12 17:00:00 29.6 22 Sudoeste 28 Sudoeste 0 1011.8 -2.1 74
2018-08-12 16:00:00 30.4 21 Sudoeste 26 Sudoeste 0 1012.6 -1.4 68
2018-08-12 15:00:00 29.7 17 Sudoeste 30 Sudoeste 0 1013.2 -0.6 73
2018-08-12 14:00:00 29.3 21 Sudoeste 32 Sudoeste 0 1013.9 0.2 73
2018-08-12 13:00:00 29.6 21 Sudoeste 33 Sudoeste 0 1014 0.2 66
2018-08-12 12:00:00 30.8 19 Sudoeste 26 Sudoeste 0 1013.8 0.1 61
2018-08-12 11:00:00 32.3 12 Este 24 Este 0 1013.7 0.2 45
2018-08-12 10:00:00 29.9 9 Este 15 Este 0 1013.8 1 56
2018-08-12 09:00:00 27.5 4 Sudeste 15 Norte 0 1013.7 0.6 68
2018-08-12 08:00:00 25 6 Sur 26 Norte 0 1013.5 0 79
2018-08-12 07:00:00 26 16 Norte 30 Norte 0 1012.8 -0.9 74
2018-08-12 06:00:00 24.7 6 Sur 13 Nordeste 0 1013.1 -1.3 82
2018-08-12 05:00:00 25.2 9 Nordeste 13 Nordeste 0 1013.5 -1.6 80
2018-08-12 04:00:00 26.3 8 Nordeste 17 Este 0 1013.7 -1.8 78
2018-08-12 03:00:00 26.6 13 Este 21 Este 0 1014.4 -0.9 79
2018-08-12 02:00:00 27.2 9 Nordeste 18 Nordeste 0 1015.1 -0.1 77
2018-08-12 01:00:00 27.3 15 Nordeste 33 Este 0 1015.5 1.3 80
2018-08-12 00:00:00 27.5 30 Este 46 Este 0 1015.3 1.5 79
2018-08-11 23:00:00 28.1 23 Este 35 Este 0 1015.2 1.7 73
2018-08-11 22:00:00 29.9 25 Nordeste 46 Nordeste 0 1014.2 0.5 58
2018-08-11 21:00:00 30.6 33 Nordeste 48 Este 0 1013.8 0.3 53
2018-08-11 20:00:00 32.1 29 Nordeste 50 Nordeste 0 1013.5 -0.6 54
2018-08-11 19:00:00 33.2 40 Este 55 Este 0 1013.7 -0.9 50
2018-08-11 18:00:00 34 41 Este 67 Este 0 1013.5 -1.5 48
2018-08-11 17:00:00 35.1 41 Este 61 Este 0 1014.1 -1.7 46
2018-08-11 16:00:00 35.3 39 Este 58 Este 0 1014.6 -1.8 45
2018-08-11 15:00:00 35.6 40 Este 55 Nordeste 0 1015 -2 42
2018-08-11 14:00:00 34.9 39 Este 55 Este 0 1015.8 -1.6 44
2018-08-11 13:00:00 34.5 42 Este 58 Este 0 1016.4 -0.9 43
2018-08-11 12:00:00 33.2 33 Nordeste 48 Este 0 1017 0.1 47
2018-08-11 11:00:00 31.9 35 Nordeste 48 Nordeste 0 1017.4 0.7 52
2018-08-11 10:00:00 31 35 Este 45 Este 0 1017.3 1.1 54
2018-08-11 09:00:00 29.4 7 Sudeste 13 Norte 0 1016.9 0.7 57
2018-08-11 08:00:00 27.3 8 Sudeste 22 Nordeste 0 1016.7 0.6 66
2018-08-11 07:00:00 27.1 12 Norte 24 Nordeste 0 1016.2 -0.3 65
2018-08-11 06:00:00 26.8 7 Este 17 Este 0 1016.2 -0.6 70
2018-08-11 05:00:00 27.1 5 Norte 13 Noroeste 0 1016.1 -0.8 69
2018-08-11 04:00:00 26.8 2 Nordeste 15 Este 0 1016.5 -0.8 75
2018-08-11 03:00:00 27.3 9 Nordeste 22 Nordeste 0 1016.8 -1 73
2018-08-11 02:00:00 28.1 17 Nordeste 37 Nordeste 0 1016.9 -0.7 70
2018-08-11 01:00:00 28.5 33 Nordeste 45 Nordeste 0 1017.3 0.5 70
2018-08-11 00:00:00 28.9 31 Nordeste 46 Nordeste 0 1017.8 2.8 68
2018-08-10 23:00:00 28.5 32 Nordeste 45 Nordeste 0 1017.6 3.4 72
2018-08-10 22:00:00 28.8 27 Nordeste 52 Este 0 1016.8 2.7 71
2018-08-10 21:00:00 29.7 40 Este 54 Nordeste 0 1015 0.7 64
2018-08-10 20:00:00 33.4 35 Este 50 Este 0 1014.2 -0.5 32
2018-08-10 19:00:00 34.7 36 Este 54 Nordeste 0 1014.1 -1.1 31
2018-08-10 18:00:00 34.9 35 Este 48 Este 0 1014.3 -1.2 36
2018-08-10 17:00:00 34.9 32 Este 48 Este 0 1014.7 -1 41
2018-08-10 16:00:00 34.8 33 Este 52 Este 0 1015.2 -0.5 44
2018-08-10 15:00:00 34.8 34 Este 50 Este 0 1015.5 0 41
2018-08-10 14:00:00 33.6 36 Este 54 Este 0 1015.7 0.4 46
2018-08-10 13:00:00 34.4 37 Nordeste 52 Este 0 1015.7 0.5 41
2018-08-10 12:00:00 33.5 40 Este 54 Este 0 1015.5 0.3 39
2018-08-10 11:00:00 32 10 Norte 21 Este 0 1015.3 0.4 45
2018-08-10 10:00:00 30.1 3 Sudoeste 17 Nordeste 0 1015.2 0.9 50
2018-08-10 09:00:00 27.3 12 Nordeste 18 Nordeste 0 1015.2 1.4 56
2018-08-10 08:00:00 23.6 4 Este 18 Noroeste 0 1014.9 1.1 77
2018-08-10 07:00:00 23 9 Norte 15 Norte 0 1014.3 0.8 86
2018-08-10 06:00:00 22.6 6 Norte 9 Norte 0 1013.8 0.3 89
2018-08-10 05:00:00 23.2 6 Nordeste 11 Norte 0 1013.8 0.3 90
2018-08-10 04:00:00 23.5 4 Norte 8 Noroeste 0 1013.5 0.2 90
2018-08-10 03:00:00 23.2 2 Sudoeste 9 Norte 0 1013.5 0.6 90
2018-08-10 02:00:00 23.8 7 Norte 15 Sudoeste 0 1013.5 0.7 89
2018-08-10 01:00:00 24.2 10 Sudoeste 15 Sudoeste 0 1013.3 1.6 89
2018-08-10 00:00:00 24.5 8 Sudoeste 13 Oeste 0 1012.9 1.8 86
2018-08-09 23:00:00 24.7 6 Sur 11 Sur 0 1012.8 2.5 85
2018-08-09 22:00:00 25.4 6 Sudeste 18 Sur 0 1011.7 1.3 83
2018-08-09 21:00:00 26.1 9 Sudeste 21 Sur 0 1011.1 0.5 78
2018-08-09 20:00:00 27.2 12 Sudeste 24 Sur 0 1010.3 -0.8 75
2018-08-09 19:00:00 28.2 15 Sur 26 Sur 0 1010.4 -1 67
2018-08-09 18:00:00 28.1 19 Sur 28 Sur 0 1010.6 -1.2 70
2018-08-09 17:00:00 28.6 22 Sur 33 Sudoeste 0 1011.1 -1 66
2018-08-09 16:00:00 28.7 21 Sur 28 Sur 0 1011.4 -0.8 69
2018-08-09 15:00:00 28.7 23 Sur 30 Sudoeste 0 1011.8 -0.1 74
2018-08-09 14:00:00 28.5 22 Sudoeste 32 Sur 0 1012.1 0.5 73
2018-08-09 13:00:00 28.6 24 Sudoeste 30 Sudoeste 0 1012.2 0.8 70
2018-08-09 12:00:00 28.2 21 Sudoeste 26 Sudoeste 0 1011.9 0.7 77
2018-08-09 11:00:00 27.7 17 Sudoeste 26 Sudoeste 0 1011.6 1 78
2018-08-09 10:00:00 27.5 18 Sudoeste 24 Sudoeste 0 1011.4 1.1 80
2018-08-09 09:00:00 27.3 11 Sudoeste 15 Oeste 0 1011.2 1 77
2018-08-09 08:00:00 25.9 7 Oeste 13 Oeste 0 1010.6 0.3 83
2018-08-09 07:00:00 25.8 5 Noroeste 13 Oeste 0 1010.3 -0.3 84
2018-08-09 06:00:00 26.1 8 Oeste 18 Oeste 0 1010.2 0.7 84
2018-08-09 05:00:00 26.4 13 Oeste 24 Sudoeste 0 1010.3 0.6 84
2018-08-09 04:00:00 26.3 19 Sudoeste 33 Sur 0 1010.6 0.2 91
2018-08-09 03:00:00 28.1 8 Sudoeste 24 Noroeste 0 1009.5 -1.6 71
2018-08-09 02:00:00 27.7 6 Nordeste 21 Norte 0 1009.7 -2.2 74
2018-08-09 01:00:00 27.9 10 Norte 17 Norte 0 1010.4 -1 74
2018-08-09 00:00:00 27.4 9 Noroeste 17 Oeste 0 1011.1 1.2 85
2018-08-08 23:00:00 27.1 10 Oeste 22 Sudoeste 0 1011.9 3.1 89
2018-08-08 22:00:00 27.1 17 Sudoeste 30 Sur 0 1011.4 2.7 90
2018-08-08 21:00:00 27.7 19 Sudoeste 26 Sur 0 1009.9 1.5 87
2018-08-08 20:00:00 28.1 13 Sudoeste 28 Sudoeste 0 1008.8 0.7 85
2018-08-08 19:00:00 28.9 24 Sudoeste 33 Sudoeste 0 1008.7 0.2 82
2018-08-08 18:00:00 29.5 21 Sudoeste 28 Sudoeste 0 1008.4 -0.5 77
2018-08-08 17:00:00 32.5 15 Sudoeste 22 Sudoeste 0 1008.1 -1.3 55
2018-08-08 16:00:00 33 14 Sudoeste 18 Sudoeste 0 1008.5 -1 57
2018-08-08 15:00:00 32.9 12 Sur 18 Sur 0 1008.9 -0.6 58
2018-08-08 14:00:00 32.4 12 Sur 17 Sur 0 1009.4 0 62
2018-08-08 13:00:00 31.7 11 Sur 18 Sur 0 1009.5 0 62
2018-08-08 12:00:00 34.1 14 Sur 24 Sur 0 1009.5 0.2 47
2018-08-08 11:00:00 34.9 16 Este 24 Nordeste 0 1009.4 0.1 34
2018-08-08 10:00:00 31.8 6 Sur 9 Sur 0 1009.5 0.3 48
2018-08-08 09:00:00 29.3 3 Norte 11 Norte 0 1009.3 0.2 57
2018-08-08 08:00:00 26.6 9 Norte 11 Norte 0 1009.3 0.2 65
2018-08-08 07:00:00 26 5 Norte 15 Norte 0 1009.2 0 65
2018-08-08 06:00:00 26.7 7 Norte 15 Norte 0 1009.1 -0.4 63
2018-08-08 05:00:00 26.5 6 Norte 9 Norte 0 1009.1 -0.7 64
2018-08-08 04:00:00 26.6 7 Este 11 Sudeste 0 1009.2 -0.8 67
2018-08-08 03:00:00 28.2 6 Nordeste 18 Este 0 1009.5 -0.1 59
2018-08-08 02:00:00 27.6 10 Nordeste 15 Nordeste 0 1009.8 1.1 68
2018-08-08 01:00:00 28.4 11 Nordeste 28 Nordeste 0 1010 2.5 68
2018-08-08 00:00:00 28.2 19 Nordeste 39 Este 0 1009.6 2.5 75
2018-08-07 23:00:00 28.1 10 Nordeste 26 Nordeste 0 1008.7 1.4 68
2018-08-07 22:00:00 27.5 6 Sur 13 Sur 0 1007.5 -0.3 87
2018-08-07 21:00:00 28.9 5 Sudoeste 11 Sudoeste 0 1007.1 -0.7 76
2018-08-07 20:00:00 29.8 8 Sudoeste 13 Sudoeste 0 1007.3 -0.7 74
2018-08-07 19:00:00 31.8 10 Sudoeste 15 Sur 0 1007.8 -1 59
2018-08-07 18:00:00 32.8 10 Sur 13 Sur 0 1007.8 -1.5 55
2018-08-07 17:00:00 31.1 9 Sur 15 Sur 0 1008 -1.6 66
2018-08-07 16:00:00 31.2 10 Sur 18 Sur 0 1008.8 -1.1 66
2018-08-07 15:00:00 31.3 13 Sur 21 Sur 0 1009.3 -0.8 62
2018-08-07 14:00:00 31.1 16 Sur 21 Sur 0 1009.6 -0.3 63
2018-08-07 13:00:00 31.8 11 Sur 21 Sur 0 1009.9 0 61
2018-08-07 12:00:00 29.9 11 Sur 18 Sur 0 1010.1 0.3 71
2018-08-07 11:00:00 31.6 11 Sur 13 Sur 0 1009.9 0.3 44
2018-08-07 10:00:00 31.1 7 Sur 9 Sur 0 1009.9 0.6 42
2018-08-07 09:00:00 29.1 8 Noroeste 17 Norte 0 1009.8 0.6 45
2018-08-07 08:00:00 26.3 10 Noroeste 13 Noroeste 0 1009.6 0.4 52
2018-08-07 07:00:00 25.9 4 Norte 17 Norte 0 1009.3 -0.4 55
2018-08-07 06:00:00 26.9 14 Noroeste 26 Noroeste 0 1009.2 -1.6 53
2018-08-07 05:00:00 27.4 19 Noroeste 30 Noroeste 0 1009.2 -2 52
2018-08-07 04:00:00 27.5 13 Noroeste 21 Noroeste 0 1009.7 -1.5 51
2018-08-07 03:00:00 27.3 5 Noroeste 9 Nordeste 0 1010.8 -0.3 52
2018-08-07 02:00:00 27.8 5 Norte 11 Nordeste 0 1011.2 0.3 52
2018-08-07 01:00:00 27.2 6 Norte 11 Noroeste 0 1011.2 1.2 59
2018-08-07 00:00:00 27.5 8 Noroeste 9 Noroeste 0 1011.1 1.3 63
2018-08-06 23:00:00 27.4 4 Este 8 Este 0 1010.9 1.1 68
2018-08-06 22:00:00 28 4 Sudeste -- -- 0 1010 -0.3 61
2018-08-06 21:00:00 29.1 8 Sudoeste 13 Sudoeste 0 1009.8 -1 59
2018-08-06 20:00:00 28.5 6 Sur 13 Sur 0 1009.8 -1.4 72
2018-08-06 19:00:00 29.8 7 Sur 13 Sur 0 1010.3 -1.4 63
2018-08-06 18:00:00 30.5 9 Sur 15 Sur 0 1010.8 -1.4 64
2018-08-06 17:00:00 30.5 10 Sur 17 Sur 0 1011.2 -1.6 63
2018-08-06 16:00:00 31.1 11 Sur 17 Sur 0 1011.7 -1.6 54
2018-08-06 15:00:00 31.1 11 Sur 17 Sur 0 1012.2 -1 51
2018-08-06 14:00:00 30.9 13 Sudoeste 21 Sur 0 1012.8 0.1 50
2018-08-06 13:00:00 29.7 13 Sur 21 Sur 0 1013.3 0.7 61
2018-08-06 12:00:00 30.2 14 Sur 21 Sudeste 0 1013.2 0.6 58
2018-08-06 11:00:00 30.1 11 Sur 17 Sur 0 1012.7 0.2 61
2018-08-06 10:00:00 32.5 12 Noroeste 24 Noroeste 0 1012.6 0.3 33
2018-08-06 09:00:00 29 17 Noroeste 26 Noroeste 0 1012.6 0.5 39
2018-08-06 08:00:00 27.1 13 Noroeste 21 Norte 0 1012.5 0.2 46
2018-08-06 07:00:00 26.6 10 Noroeste 15 Norte 0 1012.3 -0.1 48
2018-08-06 06:00:00 26 5 Este 17 Noroeste 0 1012.1 -0.8 50
2018-08-06 05:00:00 27.5 13 Noroeste 18 Noroeste 0 1012.3 -0.9 44
2018-08-06 04:00:00 27.2 8 Norte -- -- 0 1012.4 -1 47
2018-08-06 03:00:00 27.6 11 Noroeste 13 Noroeste 0 1012.9 -0.2 48
2018-08-06 02:00:00 28 8 Norte 9 Norte 0 1013.2 0.2 46
2018-08-06 01:00:00 27.1 4 Este -- -- 0 1013.4 1 53
2018-08-06 00:00:00 26.7 4 Sudeste 5 Sudeste 0 1013.1 1.1 77
2018-08-05 23:00:00 26.9 3 Nordeste 5 Este 0 1013 1 72
2018-08-05 22:00:00 27.3 4 Sudeste 8 Sudeste 0 1012.4 0.2 75
2018-08-05 21:00:00 28.2 4 Sudoeste 11 Sudoeste 0 1012 -0.5 69
2018-08-05 20:00:00 30.2 9 Sudoeste 15 Sudoeste 0 1012 -1 59
2018-08-05 19:00:00 30.2 9 Sur 13 Sur 0 1012.2 -1.1 52
2018-08-05 18:00:00 30.1 9 Sur 15 Sudoeste 0 1012.5 -1.1 52
2018-08-05 17:00:00 29.5 11 Sur 17 Sur 0 1013 -1 66
2018-08-05 16:00:00 29.9 12 Sur 17 Sur 0 1013.3 -0.6 65
2018-08-05 15:00:00 30.2 12 Sur 18 Sur 0 1013.6 -0.4 63
2018-08-05 14:00:00 29.9 13 Sur 21 Sur 0 1014 0.1 65
2018-08-05 13:00:00 29.9 14 Sur 18 Sur 0 1013.9 0.1 56
2018-08-05 12:00:00 29.3 11 Sur 18 Sur 0 1014 0.2 55
2018-08-05 11:00:00 29.6 12 Sur 15 Sur 0 1013.9 0.5 55
2018-08-05 10:00:00 29.2 9 Oeste 13 Oeste 0 1013.8 0.6 53
2018-08-05 09:00:00 27.5 4 Nordeste 11 Norte 0 1013.8 1.1 58
2018-08-05 08:00:00 24.8 6 Norte 9 Norte 0 1013.4 0.5 63
2018-08-05 07:00:00 23.9 3 Nordeste 8 Este 0 1013.2 -0.2 69
2018-08-05 06:00:00 24.1 0 Calma 5 Noroeste 0 1012.7 -1 68
2018-08-05 05:00:00 24.8 5 Norte 5 Norte 0 1012.9 -0.8 71
2018-08-05 04:00:00 25.1 3 Norte 8 Noroeste 0 1013.4 -0.6 67
2018-08-05 03:00:00 24.7 6 Nordeste 9 Este 0 1013.7 -0.5 74
2018-08-05 02:00:00 25.7 0 Calma 5 Noroeste 0 1013.7 -0.4 70
2018-08-05 01:00:00 26.4 4 Oeste 5 Noroeste 0 1014 0.4 68
2018-08-05 00:00:00 26.3 4 Sudoeste 9 Oeste 0 1014.2 0.9 75
2018-08-04 23:00:00 26.8 8 Sudoeste 11 Sudoeste 0 1014.1 1.1 72
2018-08-04 22:00:00 27 8 Sudoeste 13 Sudoeste 0 1013.6 0.3 73
2018-08-04 21:00:00 27.9 9 Sudoeste 13 Sudoeste 0 1013.3 -0.1 68
2018-08-04 20:00:00 28.6 10 Sudoeste 17 Sudoeste 0 1013 -0.6 70
2018-08-04 19:00:00 28.7 11 Sudoeste 18 Sudoeste 0 1013.3 -0.8 72
2018-08-04 18:00:00 29 14 Sudoeste 21 Sudoeste 0 1013.4 -1.1 74
2018-08-04 17:00:00 29.6 15 Sudoeste 22 Sur 0 1013.6 -1.4 70
2018-08-04 16:00:00 29.2 14 Sudoeste 24 Sudoeste 0 1014.1 -0.9 73
2018-08-04 15:00:00 28.8 16 Sudoeste 24 Sudoeste 0 1014.5 -0.2 75
2018-08-04 14:00:00 29 18 Sudoeste 26 Sur 0 1015 0.9 76
2018-08-04 13:00:00 28.5 16 Sudoeste 22 Sudoeste 0 1015 1.2 78
2018-08-04 12:00:00 28.4 14 Sudoeste 21 Sur 0 1014.7 0.8 77
2018-08-04 11:00:00 29.5 12 Sur 17 Sur 0 1014.1 0.3 59
2018-08-04 10:00:00 30.6 10 Sudeste 15 Sudeste 0 1013.8 0.4 48
2018-08-04 09:00:00 28.3 7 Este 11 Este 0 1013.9 0.9 51
2018-08-04 08:00:00 25.5 5 Sur 9 Sudoeste 0 1013.8 0.7 61
2018-08-04 07:00:00 24.6 0 Calma 17 Este 0 1013.4 -0.1 57
2018-08-04 06:00:00 24 10 Este 11 Este 0 1013 -0.9 60
2018-08-04 05:00:00 26 8 Nordeste 13 Nordeste 0 1013.1 -1 57
2018-08-04 04:00:00 26 9 Norte 11 Norte 0 1013.5 -0.4 63
2018-08-04 03:00:00 24.6 3 Sur 8 Sur 0 1013.9 0.6 93
2018-08-04 02:00:00 24.7 4 Este 11 Este 0 1014.1 1.1 68
2018-08-04 01:00:00 24.5 8 Este 13 Sudeste 0 1013.9 1.5 79
2018-08-04 00:00:00 25.4 6 Sudeste 9 Sudeste 0 1013.3 1.2 89
2018-08-03 23:00:00 26 6 Este 8 Este 0 1013 1 85
2018-08-03 22:00:00 26.5 4 Este 8 Sudoeste 0 1012.4 0 79
2018-08-03 21:00:00 27 4 Sudoeste 9 Sudoeste 0 1012.1 -0.9 79
2018-08-03 20:00:00 28.3 6 Sur 11 Sudoeste 0 1012 -1.3 74
2018-08-03 19:00:00 28.2 10 Sudoeste 18 Sudoeste 0 1012.4 -1.4 74
2018-08-03 18:00:00 28.2 14 Sudoeste 21 Sur 0 1013 -1.2 74
2018-08-03 17:00:00 28.1 15 Sudoeste 26 Sudoeste 0 1013.3 -1.3 76
2018-08-03 16:00:00 28 16 Sur 22 Sur 0 1013.8 -1.2 78
2018-08-03 15:00:00 27.8 14 Sur 21 Sur 0 1014.2 -0.8 79
2018-08-03 14:00:00 28.2 12 Sur 18 Sur 0 1014.6 -0.3 77
2018-08-03 13:00:00 27.6 15 Sudoeste 24 Sur 0 1015 0 79
2018-08-03 12:00:00 27.8 13 Sur 18 Sur 0 1015 0.3 74
2018-08-03 11:00:00 27.7 7 Sur 11 Sur 0 1014.9 0.5 76
2018-08-03 10:00:00 26.9 7 Sur 11 Sur 0 1015 1 78
2018-08-03 09:00:00 24.7 9 Este 13 Este 0 1014.7 0.8 89
2018-08-03 08:00:00 22.9 10 Nordeste 15 Nordeste 0 1014.4 0.2 97
2018-08-03 07:00:00 22.9 12 Nordeste 13 Nordeste 0 1014 -0.4 87
2018-08-03 06:00:00 23.5 9 Nordeste 11 Nordeste 0 1013.9 -0.7 78
2018-08-03 05:00:00 23.4 7 Este 9 Nordeste 0 1014.2 -0.6 73
2018-08-03 04:00:00 24.4 4 Norte 11 Oeste 0 1014.4 -0.5 81
2018-08-03 03:00:00 24.5 7 Sudoeste 11 Sudoeste 0 1014.6 -0.1 93
2018-08-03 02:00:00 25.6 0 Calma 9 Sur 0 1014.8 0.7 81
2018-08-03 01:00:00 26.8 4 Sudoeste 11 Este 0 1014.9 1.6 62
2018-08-03 00:00:00 28 6 Este 32 Nordeste 0 1014.7 2 54
2018-08-02 23:00:00 28.6 12 Nordeste 24 Nordeste 0 1014.1 1.7 54
2018-08-02 22:00:00 29.3 14 Nordeste 30 Este 0 1013.3 0.8 51
2018-08-02 21:00:00 31.4 24 Este 33 Este 0 1012.7 0.1 46
2018-08-02 20:00:00 33.6 20 Este 33 Este 0 1012.4 -0.1 40
2018-08-02 19:00:00 34.6 24 Este 35 Este 0 1012.5 0.2 38
2018-08-02 18:00:00 35.7 26 Este 41 Este 0 1012.6 0 36
2018-08-02 17:00:00 37 30 Este 46 Este 0 1012.5 -0.5 33
2018-08-02 16:00:00 37.8 33 Este 46 Este 0 1012.3 -1.4 29
2018-08-02 15:00:00 37.5 27 Este 45 Sudeste 0 1012.6 -1.3 31
2018-08-02 14:00:00 36.8 27 Este 42 Este 0 1013 -0.5 35
2018-08-02 13:00:00 33.4 15 Sudeste 35 Este 0 1013.7 -0.1 43
2018-08-02 12:00:00 36.1 26 Nordeste 46 Este 0 1013.9 0.4 29
2018-08-02 11:00:00 34.8 28 Este 39 Este 0 1013.5 0.1 28
2018-08-02 10:00:00 31.1 9 Sur 13 Sur 0 1013.8 0.7 34
2018-08-02 09:00:00 29.3 3 Este 13 Norte 0 1013.5 0.9 34
2018-08-02 08:00:00 24.2 8 Norte 13 Noroeste 0 1013.4 1.2 47
2018-08-02 07:00:00 24.4 6 Oeste 13 Noroeste 0 1013.1 1 56
2018-08-02 06:00:00 23.8 3 Este 9 Este 0 1012.6 -0.2 53
2018-08-02 05:00:00 24.7 0 Calma 9 Nordeste 0 1012.2 -0.7 50
2018-08-02 04:00:00 25 8 Este 11 Este 0 1012.1 -1.1 65
2018-08-02 03:00:00 25.9 9 Nordeste 18 Nordeste 0 1012.8 -0.2 64
2018-08-02 02:00:00 26 11 Nordeste 21 Nordeste 0 1012.9 0.2 63
2018-08-02 01:00:00 27.1 15 Nordeste 28 Nordeste 0 1013.2 1.3 58
2018-08-02 00:00:00 27.5 17 Nordeste 26 Nordeste 0 1013 1.5 51
2018-08-01 23:00:00 27.9 18 Nordeste 24 Este 0 1012.7 1.4 48
2018-08-01 22:00:00 29.7 15 Este 30 Este 0 1011.9 0.8 38
2018-08-01 21:00:00 32.5 19 Este 35 Nordeste 0 1011.5 0.1 26
2018-08-01 20:00:00 35.4 24 Este 41 Este 0 1011.3 -0.2 20
2018-08-01 19:00:00 36.8 31 Este 45 Este 0 1011.1 -0.7 17
2018-08-01 18:00:00 37.5 36 Este 50 Este 0 1011.4 -0.4 16
2018-08-01 17:00:00 37.9 35 Este 48 Este 0 1011.5 -0.5 17
2018-08-01 16:00:00 38.1 33 Este 48 Este 0 1011.8 -0.2 16
2018-08-01 15:00:00 38.6 34 Este 46 Este 0 1011.8 -0.3 16
2018-08-01 14:00:00 38.8 33 Este 46 Este 0 1012 -0.1 15
2018-08-01 13:00:00 38.6 31 Este 46 Este 0 1012 0 14
2018-08-01 12:00:00 37.5 27 Nordeste 45 Este 0 1012.1 0.3 16
2018-08-01 11:00:00 36.6 24 Este 32 Este 0 1012.1 0.3 15
2018-08-01 10:00:00 32.6 10 Norte 15 Norte 0 1012 0.2 21
2018-08-01 09:00:00 27.9 7 Noroeste 9 Noroeste 0 1011.8 0.6 36
2018-08-01 08:00:00 23.2 6 Noroeste 9 Noroeste 0 1011.8 0.8 51
2018-08-01 07:00:00 22.3 0 Calma 8 Oeste 0 1011.8 0.8 65
2018-08-01 06:00:00 22.5 2 Sudeste 9 Oeste 0 1011.2 -0.2 58
2018-08-01 05:00:00 23 5 Norte 9 Noroeste 0 1011 -0.7 60
2018-08-01 04:00:00 22.4 8 Este 9 Este 0 1011 -1 69
2018-08-01 03:00:00 23.6 4 Sudeste 9 Sudeste 0 1011.4 -0.6 67
2018-08-01 02:00:00 24.6 5 Norte 15 Nordeste 0 1011.7 -0.1 74
2018-08-01 01:00:00 24.3 7 Nordeste 11 Nordeste 0 1012 0.7 82
2018-08-01 00:00:00 23.9 2 Sur 9 Sudoeste 0 1012 1 92
2018-07-31 23:00:00 24.5 4 Sudoeste 8 Sudoeste 0 1011.8 1 89
2018-07-31 22:00:00 24.6 7 Oeste 17 Sudoeste 0 1011.3 0.5 90
2018-07-31 21:00:00 25.3 13 Sudoeste 17 Sudoeste 0 1011 -0.2 87
2018-07-31 20:00:00 26.1 10 Sudoeste 17 Sudoeste 0 1010.8 -0.9 82
2018-07-31 19:00:00 26.7 10 Sudoeste 18 Sudoeste 0 1010.8 -1.1 80
2018-07-31 18:00:00 26.9 10 Sudoeste 21 Sudoeste 0 1011.2 -1 79
2018-07-31 17:00:00 27.3 17 Sudoeste 24 Sudoeste 0 1011.7 -0.8 78
2018-07-31 16:00:00 27 19 Sudoeste 26 Sudoeste 0 1011.9 -0.8 77
2018-07-31 15:00:00 26.7 17 Sudoeste 28 Sudoeste 0 1012.2 -0.6 77
2018-07-31 14:00:00 27 23 Sudoeste 28 Sudoeste 0 1012.5 -0.2 77
2018-07-31 13:00:00 26.4 17 Sudoeste 24 Sudoeste 0 1012.7 0.1 79
2018-07-31 12:00:00 25.6 16 Sudoeste 21 Sudoeste 0 1012.8 0.5 78
2018-07-31 11:00:00 25.8 13 Sur 18 Sur 0 1012.7 0.6 76
2018-07-31 10:00:00 26 10 Sur 13 Sur 0 1012.6 0.6 65
2018-07-31 09:00:00 26.9 3 Sudoeste 13 Noroeste 0 1012.3 0.7 49
2018-07-31 08:00:00 22.8 9 Norte 11 Norte 0 1012.1 0.7 58
2018-07-31 07:00:00 21.5 2 Este -- -- 0 1012 0.2 69
2018-07-31 06:00:00 21.6 3 Norte 8 Noroeste 0 1011.6 -0.5 77
2018-07-31 05:00:00 21.9 0 Calma 8 Norte 0 1011.4 -1.1 82
2018-07-31 04:00:00 21.4 5 Norte 13 Norte 0 1011.8 -0.8 88
2018-07-31 03:00:00 22.2 5 Nordeste 8 Nordeste 0 1012.1 -0.4 94
2018-07-31 02:00:00 22.4 3 Oeste 4 Oeste 0 1012.5 0.1 94
2018-07-31 01:00:00 22.7 3 Sur 5 Sur 0 1012.6 0.8 93
2018-07-31 00:00:00 22.8 6 Sudeste 8 Sudeste 0 1012.5 0.9 90
2018-07-30 23:00:00 23 0 Calma 5 Este 0 1012.4 1.2 89
2018-07-30 22:00:00 23.3 0 Calma 9 Sur 0 1011.8 0.7 89
2018-07-30 21:00:00 24.2 6 Sur 11 Sur 0 1011.6 0.4 85
2018-07-30 20:00:00 25.1 7 Sur 13 Sur 0 1011.2 -0.4 80
2018-07-30 19:00:00 25.4 8 Sudoeste 17 Sur 0 1011.1 -0.8 77
2018-07-30 18:00:00 25.9 11 Sur 18 Sur 0 1011.2 -1.2 74
2018-07-30 17:00:00 25.9 15 Sudoeste 21 Sudoeste 0 1011.6 -1 73
2018-07-30 16:00:00 26.5 14 Sudoeste 21 Sur 0 1011.9 -0.8 71
2018-07-30 15:00:00 26.1 12 Sur 21 Sudoeste 0 1012.4 -0.4 72
2018-07-30 14:00:00 25.6 13 Sur 18 Sudoeste 0 1012.6 0.3 73
2018-07-30 13:00:00 25.9 12 Sur 18 Sur 0 1012.7 0.4 74
2018-07-30 12:00:00 25.1 10 Sudeste 18 Sudeste 0 1012.8 1.1 76
2018-07-30 11:00:00 25.2 10 Sur 15 Sur 0 1012.3 0.9 76
2018-07-30 10:00:00 24.6 8 Sur 13 Sudeste 0 1012.3 1.1 80
2018-07-30 09:00:00 24.4 4 Este 9 Nordeste 0 1011.7 1.1 80
2018-07-30 08:00:00 21.5 8 Nordeste 11 Nordeste 0 1011.4 1 88
2018-07-30 07:00:00 20.2 9 Este 11 Este 0 1011.2 0.5 84
2018-07-30 06:00:00 20.5 5 Sudeste 8 Sudeste 0 1010.6 -0.4 82
2018-07-30 05:00:00 21.9 5 Nordeste 11 Nordeste 0 1010.4 -1 84
2018-07-30 04:00:00 22 9 Nordeste 13 Nordeste 0 1010.7 -0.8 86
2018-07-30 03:00:00 22.3 10 Nordeste 13 Nordeste 0 1011 -0.3 85
2018-07-30 02:00:00 22.7 10 Nordeste 15 Nordeste 0 1011.4 0.3 83
2018-07-30 01:00:00 23.1 10 Nordeste 15 Nordeste 0 1011.5 1.2 81
2018-07-30 00:00:00 23.7 11 Nordeste 17 Nordeste 0 1011.3 1.1 78
2018-07-29 23:00:00 23.9 13 Nordeste 17 Nordeste 0 1011.1 1 79
2018-07-29 22:00:00 24.5 2 Este 17 Sudoeste 0 1010.3 -0.1 81
2018-07-29 21:00:00 25.3 13 Sudoeste 17 Sudoeste 0 1010.2 -0.7 75
2018-07-29 20:00:00 26 10 Sudeste 15 Sudeste 0 1010.1 -1 72
2018-07-29 19:00:00 26.2 10 Sudeste 17 Sudeste 0 1010.4 -1.1 69
2018-07-29 18:00:00 26.4 11 Sudeste 18 Sur 0 1010.9 -0.7 69
2018-07-29 17:00:00 26.9 10 Sur 22 Sur 0 1011.1 -0.7 69
2018-07-29 16:00:00 27.2 15 Sur 24 Sudoeste 0 1011.5 -0.5 68
2018-07-29 15:00:00 27.3 20 Sudoeste 26 Sudoeste 0 1011.6 -0.5 69
2018-07-29 14:00:00 26.7 12 Sur 18 Sur 0 1011.8 0 74
2018-07-29 13:00:00 26.5 11 Sur 18 Sur 0 1012 0.7 74
2018-07-29 12:00:00 26.2 13 Sur 18 Sur 0 1012.1 1.1 73
2018-07-29 11:00:00 25.7 13 Sur 48 Sudeste 0 1011.8 1.1 78
2018-07-29 10:00:00 27.3 11 Este 17 Este 0 1011.3 1.2 68
2018-07-29 09:00:00 24.4 9 Este 15 Este 0 1011 1.2 82
2018-07-29 08:00:00 22 12 Nordeste 17 Nordeste 0 1010.7 1.1 92
2018-07-29 07:00:00 20.5 12 Este 17 Este 0 1010.1 0.7 86
2018-07-29 06:00:00 21.6 5 Norte 17 Nordeste 0 1009.8 -0.1 84
2018-07-29 05:00:00 20.9 6 Este 9 Sudeste 0 1009.6 -0.5 85
2018-07-29 04:00:00 22.4 5 Norte 13 Nordeste 0 1009.4 -0.8 80
2018-07-29 03:00:00 22.6 5 Nordeste 13 Nordeste 0 1009.9 -0.4 84
2018-07-29 02:00:00 23.2 10 Nordeste 15 Nordeste 0 1010.1 0 85
2018-07-29 01:00:00 23.9 12 Nordeste 15 Nordeste 0 1010.2 0.7 83
2018-07-29 00:00:00 24.2 0 Calma 17 Nordeste 0 1010.3 1.1 85
2018-07-28 23:00:00 24.6 12 Este 17 Este 0 1010.1 1.1 81
2018-07-28 22:00:00 25.1 10 Este 17 Este 0 1009.5 0.4 79
2018-07-28 21:00:00 25.9 11 Este 21 Este 0 1009.2 -0.2 76
2018-07-28 20:00:00 26.9 14 Sudeste 18 Sudeste 0 1009 -0.7 73
2018-07-28 19:00:00 27.4 13 Sur 18 Sur 0 1009.1 -0.9 70
2018-07-28 18:00:00 27.1 8 Sur 18 Sur 0 1009.4 -1 75
2018-07-28 17:00:00 27 12 Sur 24 Sur 0 1009.7 -1 77
2018-07-28 16:00:00 27.3 17 Sur 28 Sur 0 1010 -0.9 75
2018-07-28 15:00:00 26.8 12 Sur 18 Sur 0 1010.4 -0.6 74
2018-07-28 14:00:00 26.5 13 Sur 18 Sur 0 1010.7 -0.1 74
2018-07-28 13:00:00 26.5 14 Sur 18 Sur 0 1010.9 0.1 72
2018-07-28 12:00:00 26.4 13 Sur 17 Sur 0 1011 0.2 73
2018-07-28 11:00:00 25.4 10 Sur 15 Sur 0 1010.8 0.4 77
2018-07-28 10:00:00 25.2 5 Sur 11 Sudeste 0 1010.8 1.1 75
2018-07-28 09:00:00 23.4 2 Este 13 Noroeste 0 1010.8 1.4 85
2018-07-28 08:00:00 22.1 5 Norte 11 Nordeste 0 1010.4 1.1 92
2018-07-28 07:00:00 21.5 5 Norte 9 Norte 0 1009.7 0.5 92
2018-07-28 06:00:00 21.4 5 Norte -- -- 0 1009.4 -0.3 84
2018-07-28 05:00:00 21.4 4 Norte 5 Norte 0 1009.3 -0.7 79
2018-07-28 04:00:00 22.4 4 Norte -- -- 0 1009.2 -1.1 89
2018-07-28 03:00:00 22.4 0 Calma 4 Nordeste 0 1009.7 -0.5 81
2018-07-28 02:00:00 22.5 0 Calma 8 Nordeste 0 1010 -0.1 79
2018-07-28 01:00:00 22.8 5 Este -- -- 0 1010.3 1 87
2018-07-28 00:00:00 23.3 2 Sudeste -- -- 0 1010.2 1.7 89
2018-07-27 23:00:00 23.6 2 Sudeste 5 Sur 0 1010.1 1.9 88
2018-07-27 22:00:00 24.1 3 Sur 11 Sur 0 1009.3 0.6 85
2018-07-27 21:00:00 24.9 7 Sur 13 Sur 0 1008.5 -0.5 79
2018-07-27 20:00:00 25.7 9 Sur 18 Sudoeste 0 1008.2 -1.4 78
2018-07-27 19:00:00 26.1 13 Sudoeste 17 Sur 0 1008.7 -1.2 79
2018-07-27 18:00:00 26.9 12 Sur 22 Sudoeste 0 1009 -1.3 75
2018-07-27 17:00:00 27 14 Sudoeste 21 Sudoeste 0 1009.6 -1.2 75
2018-07-27 16:00:00 27.4 13 Sur 18 Sur 0 1009.9 -1 74
2018-07-27 15:00:00 27 13 Sur 21 Sudoeste 0 1010.3 -0.7 75
2018-07-27 14:00:00 26.7 14 Sur 18 Sur 0 1010.8 0.2 76
2018-07-27 13:00:00 26.6 13 Sur 18 Sur 0 1010.9 0.3 77
2018-07-27 12:00:00 25.8 14 Sur 21 Sudoeste 0 1011 0.6 81
2018-07-27 11:00:00 26.2 12 Sur 17 Sur 0 1010.6 1 76
2018-07-27 10:00:00 25.5 9 Sudeste 15 Sudeste 0 1010.6 1.3 74
2018-07-27 09:00:00 23.9 8 Sudeste 13 Noroeste 0 1010.4 1 78
2018-07-27 08:00:00 22.4 8 Noroeste 15 Noroeste 0 1009.6 0.1 81
2018-07-27 07:00:00 21.6 9 Norte 11 Norte 0 1009.3 -0.3 94
2018-07-27 06:00:00 22.3 6 Nordeste 9 Norte 0 1009.4 -0.6 90
2018-07-27 05:00:00 21.3 6 Este 8 Este 0 1009.5 -0.6 86
2018-07-27 04:00:00 22.3 0 Calma 5 Noroeste 0 1009.6 -1 90
2018-07-27 03:00:00 22.5 5 Este 9 Este 0 1010 -0.8 90
2018-07-27 02:00:00 23.4 5 Nordeste 13 Noroeste 0 1010.1 -0.5 84
2018-07-27 01:00:00 23.5 3 Noroeste 8 Noroeste 0 1010.6 0.8 88
2018-07-27 00:00:00 23.5 0 Calma 4 Sudeste 0 1010.8 1.7 88
2018-07-26 23:00:00 23.7 4 Sur 9 Sur 0 1010.6 1.8 87
2018-07-26 22:00:00 24.1 8 Sur 11 Sur 0 1009.8 0.9 86
2018-07-26 21:00:00 25.2 4 Sur 9 Sudoeste 0 1009.1 -0.2 80
2018-07-26 20:00:00 25.9 5 Sudoeste 13 Sudoeste 0 1008.8 -0.7 78
2018-07-26 19:00:00 26.4 7 Sur 18 Sudoeste 0 1008.9 -1.1 76
2018-07-26 18:00:00 26.6 12 Sudoeste 18 Sur 0 1009.3 -1.1 75
2018-07-26 17:00:00 26.9 13 Sudoeste 21 Sudoeste 0 1009.5 -1.3 75
2018-07-26 16:00:00 27.3 13 Sur 18 Sur 0 1010 -0.9 74
2018-07-26 15:00:00 27.3 13 Sur 21 Sur 0 1010.4 -0.6 73
2018-07-26 14:00:00 27.4 15 Sur 21 Sur 0 1010.8 -0.4 73
2018-07-26 13:00:00 27.3 15 Sur 18 Sur 0 1010.9 -0.7 74
2018-07-26 12:00:00 26.9 13 Sur 17 Sur 0 1011 -0.4 74
2018-07-26 11:00:00 26.2 10 Sur 15 Sur 0 1011.2 0.1 76
2018-07-26 10:00:00 25.3 10 Sudoeste 13 Sudoeste 0 1011.6 1.1 79
2018-07-26 09:00:00 24.5 3 Norte 9 Este 0 1011.4 1.1 81
2018-07-26 08:00:00 21.8 8 Este 9 Este 0 1011.1 0.8 88
2018-07-26 07:00:00 22.1 4 Noroeste 8 Norte 0 1010.5 0.1 90
2018-07-26 06:00:00 22.4 3 Norte 8 Norte 0 1010.3 -0.2 91
2018-07-26 05:00:00 22.6 5 Norte 9 Oeste 0 1010.3 -0.3 92
2018-07-26 04:00:00 22.9 7 Oeste 9 Sudoeste 0 1010.4 -0.3 92
2018-07-26 03:00:00 23 4 Sudoeste 8 Sudoeste 0 1010.5 -0.1 84
2018-07-26 02:00:00 23.3 5 Sur 8 Sur 0 1010.6 -0.2 79
2018-07-26 01:00:00 23.7 2 Norte 5 Norte 0 1010.7 0.7 77
2018-07-26 00:00:00 24 4 Sudeste 8 Este 0 1010.6 1.1 77
2018-07-25 23:00:00 24.2 -- -- -- -- 0 1010.8 1.5 79
2018-07-25 22:00:00 24.5 2 Sur 8 Sur 0 1010 0.6 79
2018-07-25 21:00:00 25.9 5 Sur 9 Sudoeste 0 1009.5 -0.3 72
2018-07-25 20:00:00 26.5 4 Sur 11 Sudoeste 0 1009.3 -0.9 69
2018-07-25 19:00:00 26.8 6 Sur 13 Sudoeste 0 1009.4 -1.1 70
2018-07-25 18:00:00 27 7 Sur 17 Sur 0 1009.8 -1 69
2018-07-25 17:00:00 26.8 8 Sudoeste 17 Sudoeste 0 1010.2 -1 71
2018-07-25 16:00:00 26.8 10 Sudoeste 18 Sudoeste 0 1010.5 -0.8 72
2018-07-25 15:00:00 26.7 12 Sur 21 Sudoeste 0 1010.8 -0.6 72
2018-07-25 14:00:00 26.3 13 Sudoeste 21 Sudoeste 0 1011.2 -0.1 74
2018-07-25 13:00:00 26.3 12 Sudoeste 17 Sudoeste 0 1011.3 -0.3 76
2018-07-25 12:00:00 25.7 13 Sur 17 Sur 0 1011.4 0.2 78
2018-07-25 11:00:00 25.3 9 Sudoeste 15 Sudoeste 0 1011.3 0.7 77
2018-07-25 10:00:00 24.6 8 Sur 11 Sur 0 1011.6 1.5 79
2018-07-25 09:00:00 24.1 4 Este 9 Este 0 1011.2 1.7 80
2018-07-25 08:00:00 21.1 5 Norte 11 Norte 0 1010.6 1.1 90
2018-07-25 07:00:00 20.4 5 Nordeste 13 Nordeste 0 1010.1 0.5 93
2018-07-25 06:00:00 20.4 9 Nordeste 11 Nordeste 0 1009.5 -0.4 92
2018-07-25 05:00:00 20.9 8 Nordeste 11 Nordeste 0 1009.5 -0.9 93
2018-07-25 04:00:00 21.2 4 Nordeste 8 Sudoeste 0 1009.6 -1 92
2018-07-25 03:00:00 21.9 7 Sudoeste 13 Sudoeste 0 1009.9 -1 93
2018-07-25 02:00:00 22.1 8 Sudoeste 11 Sudoeste 0 1010.4 -0.3 92
2018-07-25 01:00:00 22.2 6 Sudoeste 11 Sudoeste 0 1010.6 0.7 91
2018-07-25 00:00:00 22.5 8 Sudoeste 18 Sudoeste 0 1010.9 1.5 89
2018-07-24 23:00:00 22.7 14 Sudoeste 22 Sudoeste 0 1010.7 1.3 88
2018-07-24 22:00:00 22.8 16 Sudoeste 22 Sudoeste 0 1009.9 0.5 87
2018-07-24 21:00:00 23.5 14 Sudoeste 22 Sudoeste 0 1009.4 -0.7 82
2018-07-24 20:00:00 24.5 14 Sudoeste 21 Sur 0 1009.4 -1.3 78
2018-07-24 19:00:00 25 12 Sudoeste 21 Sudoeste 0 1009.4 -1.8 78
2018-07-24 18:00:00 25.4 14 Sur 26 Sur 0 1010.1 -1.5 78
2018-07-24 17:00:00 25.8 19 Sur 30 Sur 0 1010.7 -1.3 76
2018-07-24 16:00:00 26 25 Sudoeste 33 Sudoeste 0 1011.2 -1.2 76
2018-07-24 15:00:00 26.2 24 Sudoeste 32 Sudoeste 0 1011.6 -1.1 75
2018-07-24 14:00:00 26 22 Sudoeste 28 Sudoeste 0 1012 -0.7 77
2018-07-24 13:00:00 25.3 19 Sudoeste 28 Sudoeste 0 1012.4 -0.2 80
2018-07-24 12:00:00 24.4 21 Sudoeste 30 Sudoeste 0 1012.7 0.3 85
2018-07-24 11:00:00 23.8 21 Sudoeste 28 Sudoeste 0 1012.7 0.6 90
2018-07-24 10:00:00 24.4 15 Sur 21 Sudoeste 0 1012.6 0.7 87
2018-07-24 09:00:00 23.6 6 Oeste 13 Sudoeste 0 1012.4 0.8 89
2018-07-24 08:00:00 22.4 0 Calma 4 Este 0 1012.1 0.4 94
2018-07-24 07:00:00 21.9 3 Este 5 Este 0 1011.9 0.1 95
2018-07-24 06:00:00 22.2 0 Calma 4 Este 0 1011.6 -0.4 94
2018-07-24 05:00:00 22.5 2 Este 5 Sudeste 0 1011.7 -1 96
2018-07-24 04:00:00 22.6 -- -- -- -- 0 1011.8 -1.3 95
2018-07-24 03:00:00 22.9 0 Calma 4 Sur 0 1012 -1.1 94
2018-07-24 02:00:00 23.2 2 Sur 5 Sudoeste 0 1012.7 -0.3 93
2018-07-24 01:00:00 23.6 4 Sudoeste 8 Sudoeste 0 1013.1 0.5 91
2018-07-24 00:00:00 24.2 6 Sudoeste 9 Sudoeste 0 1013.1 0.9 88
2018-07-23 23:00:00 24.2 7 Sudoeste 13 Oeste 0 1013 1 90
2018-07-23 22:00:00 24.4 9 Sudoeste 18 Sudoeste 0 1012.6 0.7 89
2018-07-23 21:00:00 25.1 13 Sudoeste 17 Sudoeste 0 1012.2 0.1 87
2018-07-23 20:00:00 26 13 Sudoeste 24 Sudoeste 0 1012 -0.3 83
2018-07-23 19:00:00 26.8 20 Sudoeste 26 Sudoeste 0 1011.9 -0.8 80
2018-07-23 18:00:00 27.4 19 Sudoeste 26 Sudoeste 0 1012.1 -0.8 77
2018-07-23 17:00:00 28.1 18 Sudoeste 26 Sudoeste 0 1012.3 -0.8 71
2018-07-23 16:00:00 28.5 15 Sudoeste 22 Sudoeste 0 1012.7 -0.6 69
2018-07-23 15:00:00 28.5 18 Sur 30 Sur 0 1012.9 -0.8 69
2018-07-23 14:00:00 29.6 21 Sur 39 Sudeste 0 1013.1 -0.6 64
2018-07-23 13:00:00 32 23 Este 35 Este 0 1013.3 -0.7 52
2018-07-23 12:00:00 31.5 18 Este 30 Este 0 1013.7 -0.2 52
2018-07-23 11:00:00 30.2 18 Este 32 Este 0 1013.7 0.2 54
2018-07-23 10:00:00 28.7 15 Este 24 Este 0 1014 0.8 64
2018-07-23 09:00:00 26.5 16 Este 24 Este 0 1013.9 1.3 74
2018-07-23 08:00:00 24.1 9 Este 18 Nordeste 0 1013.5 1 86
2018-07-23 07:00:00 23.3 11 Este 15 Este 0 1013.2 0.5 86
2018-07-23 06:00:00 23.7 8 Este 13 Este 0 1012.6 -0.6 83
2018-07-23 05:00:00 24 11 Nordeste 15 Nordeste 0 1012.5 -1.3 80
2018-07-23 04:00:00 24.1 7 Este 15 Nordeste 0 1012.7 -1.3 79
2018-07-23 03:00:00 24.8 12 Nordeste 21 Este 0 1013.2 -0.2 81
2018-07-23 02:00:00 24.9 10 Este 13 Este 0 1013.8 1 79
2018-07-23 01:00:00 25.7 9 Este 18 Este 0 1014 2.1 76
2018-07-23 00:00:00 26.4 12 Este 24 Este 0 1013.4 1.9 72
2018-07-22 23:00:00 26.9 15 Este 30 Este 0 1012.8 1.9 67
2018-07-22 22:00:00 26.6 21 Este 30 Este 0 1011.9 1.4 68
2018-07-22 21:00:00 25.6 8 Sudoeste 15 Sudoeste 0 1011.5 1.2 83
2018-07-22 20:00:00 26.3 10 Sudoeste 17 Sudoeste 0 1010.9 0.6 79
2018-07-22 19:00:00 26.9 14 Sudoeste 24 Sudoeste 0 1010.5 -0.1 77
2018-07-22 18:00:00 27.3 19 Sudoeste 24 Sudoeste 0 1010.3 -0.3 76
2018-07-22 17:00:00 27.6 17 Sudoeste 22 Sudoeste 0 1010.3 -0.2 76
2018-07-22 16:00:00 27.5 17 Sur 26 Sudoeste 0 1010.6 -0.1 75
2018-07-22 15:00:00 28.7 18 Sur 28 Sur 0 1010.6 0 69
2018-07-22 14:00:00 28.7 18 Sur 30 Sudoeste 0 1010.5 0.2 67
2018-07-22 13:00:00 28.7 14 Sur 28 Sudoeste 0 1010.7 0.5 64
2018-07-22 12:00:00 27.9 15 Sur 32 Este 0 1010.6 0.5 67
2018-07-22 11:00:00 30.4 23 Este 35 Este 0 1010.3 0.3 52
2018-07-22 10:00:00 28.3 5 Sur 17 Noroeste 0 1010.2 0.3 61
2018-07-22 09:00:00 25.9 3 Norte 11 Norte 0 1010.1 0.9 72
2018-07-22 08:00:00 23.9 5 Norte 11 Norte 0 1010 0.6 82
2018-07-22 07:00:00 24 4 Nordeste 13 Norte 0 1009.9 0.1 82
2018-07-22 06:00:00 23.7 12 Norte 17 Norte 0 1009.2 0.1 87
2018-07-22 05:00:00 22.7 3 Sudeste 9 Noroeste 0 1009.4 -0.2 90
2018-07-22 04:00:00 22.5 6 Oeste 15 Sudoeste 0 1009.8 0.1 93
2018-07-22 03:00:00 22.9 3 Sudoeste 15 Este 0 1009.1 -1.2 90
2018-07-22 02:00:00 23.2 8 Este 11 Este 0 1009.6 -0.8 87
2018-07-22 01:00:00 23.5 4 Este 9 Norte 0 1009.7 0.3 87
2018-07-22 00:00:00 23.2 2 Este 5 Sudeste 0 1010.3 1.4 90
2018-07-21 23:00:00 23.5 4 Sudeste 5 Sur 0 1010.4 1.7 87
2018-07-21 22:00:00 23.7 0 Calma 8 Sudeste 0 1009.4 0.3 87
2018-07-21 21:00:00 24.7 2 Sur 9 Sudoeste 0 1008.9 -0.9 82
2018-07-21 20:00:00 25.5 4 Sudoeste 11 Sudoeste 0 1008.7 -1.2 80
2018-07-21 19:00:00 26.2 5 Sudoeste 17 Sur 0 1009.1 -1.3 77
2018-07-21 18:00:00 26.3 10 Sudoeste 17 Sudoeste 0 1009.8 -1 77
2018-07-21 17:00:00 26.4 12 Sudoeste 18 Sudoeste 0 1009.9 -1.5 75
2018-07-21 16:00:00 26.3 13 Sudoeste 18 Sudoeste 0 1010.4 -1.2 73
2018-07-21 15:00:00 26.7 13 Sudoeste 21 Sudoeste 0 1010.8 -0.8 69
2018-07-21 14:00:00 26.1 13 Sudoeste 18 Sudoeste 0 1011.4 0.2 69
2018-07-21 13:00:00 25.8 9 Sur 13 Sur 0 1011.6 0.7 67
2018-07-21 12:00:00 24.4 8 Sur 15 Sur 0 1011.6 1.1 76
2018-07-21 11:00:00 24.1 10 Sur 15 Sudeste 0 1011.2 1.2 79
2018-07-21 10:00:00 23.4 11 Sudeste 15 Sudeste 0 1010.9 1.3 80
2018-07-21 09:00:00 22.7 8 Este 11 Nordeste 0 1010.5 1.2 76
2018-07-21 08:00:00 20.7 3 Norte 8 Nordeste 0 1010 1 80
2018-07-21 07:00:00 20.4 2 Norte 9 Norte 0 1009.6 0.8 85
2018-07-21 06:00:00 20.3 4 Noroeste 9 Noroeste 0 1009.3 0.3 84
2018-07-21 05:00:00 20.3 3 Nordeste 11 Nordeste 0 1009 -0.2 86
2018-07-21 04:00:00 20.7 6 Nordeste 17 Nordeste 0 1008.8 -0.5 85
2018-07-21 03:00:00 20.6 10 Este 18 Nordeste 0 1009 0 85
2018-07-21 02:00:00 21.4 13 Este 22 Este 0 1009.2 0.6 82
2018-07-21 01:00:00 21.9 12 Nordeste 17 Este 0 1009.3 1.5 79
2018-07-21 00:00:00 22.7 15 Este 21 Este 0 1009 1.4 76
2018-07-20 23:00:00 23.1 12 Este 17 Sudoeste 0 1008.6 1.5 75
2018-07-20 22:00:00 24.7 13 Sudoeste 21 Sudoeste 0 1007.8 0.2 67
2018-07-20 21:00:00 25.2 13 Sur 18 Sur 0 1007.6 -0.6 68
2018-07-20 20:00:00 26 17 Sur -- -- -- 1007.1 -1.9 67
2018-07-20 19:00:00 28.1 18 Sudoeste 33 Sur 0 1007.6 -2 48
2018-07-20 18:00:00 25.8 8 Sur 17 Sudeste 0 1008.2 -1.6 75
2018-07-20 17:00:00 25.9 9 Sur 18 Sudoeste 0 1009 -2 76
2018-07-20 16:00:00 25.8 13 Sur 18 Sur 0 1009.6 -1.6 77
2018-07-20 15:00:00 26 13 Sur 18 Sur 0 1009.8 -1 75
2018-07-20 14:00:00 25.2 12 Sudoeste 18 Sur 0 1011 1 79
2018-07-20 13:00:00 25.2 10 Sur 21 Sur 0 1011.2 -0.3 79
2018-07-20 12:00:00 24.4 7 Sur 21 Sur 0 1010.8 -0.3 73
2018-07-20 11:00:00 24.8 12 Sur 17 Sur 0 1010 -0.2 75
2018-07-20 10:00:00 23.7 9 Sudeste 21 Este 0 1011.5 1 79
2018-07-20 09:00:00 22.3 8 Sudeste 18 Este 0 1011.1 0.7 89
2018-07-20 08:00:00 21.6 13 Este 21 Sudeste 0 1010.2 0.2 92
2018-07-20 07:00:00 21.3 5 Sur 13 Sudeste 0 1010.5 0 95
2018-07-20 06:00:00 21.4 3 Sur 13 Sur 0 1010.4 -0.4 95
2018-07-20 05:00:00 21.7 6 Norte 11 Sudeste 0 1010 -1.8 95
2018-07-20 04:00:00 21.9 5 Sudoeste 13 Sudoeste 0 1010.5 -1.4 92
2018-07-20 03:00:00 21.9 8 Oeste 13 Oeste 0 1010.8 -1.1 93
2018-07-20 02:00:00 21.8 4 Sur 11 Sudeste 0 1011.8 -0.3 94
2018-07-20 01:00:00 21.9 12 Sudeste 18 Sur 0 1011.9 -0.1 93
2018-07-20 00:00:00 22.5 4 Sur 17 Sur 0 1011.9 0.3 89